createdAt,value
2018-07-22T00:00:48.075Z,12.10
2018-07-22T00:03:22.796Z,12.87
2018-07-22T00:05:51.188Z,11.67
2018-07-22T00:08:24.550Z,11.20
2018-07-22T00:10:59.092Z,12.13
2018-07-22T00:13:32.223Z,12.20
2018-07-22T00:16:12.245Z,12.70
2018-07-22T00:18:40.407Z,12.30
2018-07-22T00:21:11.363Z,13.00
2018-07-22T00:23:41.552Z,12.67
2018-07-22T00:26:09.777Z,14.97
2018-07-22T00:28:44.189Z,12.90
2018-07-22T00:31:17.313Z,13.43
2018-07-22T00:33:47.782Z,11.83
2018-07-22T00:36:23.972Z,12.43
2018-07-22T00:38:52.105Z,12.53
2018-07-22T00:41:26.757Z,12.43
2018-07-22T00:43:54.924Z,13.13
2018-07-22T00:46:25.845Z,14.33
2018-07-22T00:48:54.055Z,14.27
2018-07-22T00:51:35.901Z,14.97
2018-07-22T00:54:06.089Z,15.00
2018-07-22T00:56:34.511Z,17.43
2018-07-22T00:59:03.041Z,15.70
2018-07-22T01:01:31.276Z,12.77
2018-07-22T01:04:02.393Z,14.07
2018-07-22T01:06:30.789Z,14.53
2018-07-22T01:08:59.405Z,13.37
2018-07-22T01:11:29.798Z,14.00
2018-07-22T01:13:58.408Z,14.67
2018-07-22T01:16:28.526Z,17.27
2018-07-22T01:18:57.113Z,13.93
2018-07-22T01:21:25.373Z,13.50
2018-07-22T01:24:03.497Z,14.37
2018-07-22T01:26:34.495Z,15.57
2018-07-22T01:29:02.688Z,17.43
2018-07-22T01:31:35.705Z,15.30
2018-07-22T01:34:05.999Z,15.40
2018-07-22T01:36:34.184Z,14.63
2018-07-22T01:39:07.051Z,16.00
2018-07-22T01:41:35.501Z,15.43
2018-07-22T01:44:03.901Z,17.10
2018-07-22T01:46:32.107Z,16.20
2018-07-22T01:49:06.683Z,16.03
2018-07-22T01:51:34.876Z,15.23
2018-07-22T01:54:07.321Z,15.43
2018-07-22T01:56:41.974Z,16.20
2018-07-22T01:59:15.172Z,15.70
2018-07-22T02:01:49.817Z,16.43
2018-07-22T02:04:24.356Z,15.97
2018-07-22T02:06:57.624Z,14.67
2018-07-22T02:09:35.339Z,15.30
2018-07-22T02:12:03.478Z,14.57
2018-07-22T02:14:36.030Z,13.83
2018-07-22T02:17:10.585Z,15.40
2018-07-22T02:19:43.090Z,14.67
2018-07-22T02:22:13.931Z,12.70
2018-07-22T02:24:42.348Z,14.03
2018-07-22T02:27:10.642Z,14.20
2018-07-22T02:29:38.842Z,15.03
2018-07-22T02:32:09.827Z,16.00
2018-07-22T02:34:38.235Z,17.03
2018-07-22T02:37:06.412Z,15.30
2018-07-22T02:39:46.315Z,16.37
2018-07-22T02:42:14.836Z,14.53
2018-07-22T02:44:45.107Z,14.50
2018-07-22T02:47:13.245Z,15.47
2018-07-22T02:49:48.202Z,15.47
2018-07-22T02:52:16.440Z,15.53
2018-07-22T02:54:44.621Z,15.27
2018-07-22T02:57:18.969Z,15.00
2018-07-22T02:59:50.000Z,14.17
2018-07-22T03:02:18.172Z,14.70
2018-07-22T03:04:52.038Z,16.43
2018-07-22T03:07:20.461Z,13.10
2018-07-22T03:09:48.817Z,12.27
2018-07-22T03:12:17.018Z,14.63
2018-07-22T03:14:50.957Z,13.83
2018-07-22T03:17:19.381Z,15.03
2018-07-22T03:19:47.592Z,15.30
2018-07-22T03:22:22.070Z,14.70
2018-07-22T03:24:53.019Z,15.40
2018-07-22T03:27:21.302Z,14.97
2018-07-22T03:29:49.472Z,17.53
2018-07-22T03:32:29.421Z,15.20
2018-07-22T03:34:59.823Z,16.10
2018-07-22T03:37:28.429Z,14.97
2018-07-22T03:39:58.636Z,18.87
2018-07-22T03:42:26.809Z,16.20
2018-07-22T03:45:01.476Z,16.53
2018-07-22T03:47:30.221Z,15.27
2018-07-22T03:49:58.616Z,15.73
2018-07-22T03:52:26.691Z,15.67
2018-07-22T03:55:06.499Z,18.80
2018-07-22T03:57:34.713Z,15.20
2018-07-22T04:00:07.264Z,17.20
2018-07-22T04:02:35.430Z,17.27
2018-07-22T04:05:07.917Z,16.70
2018-07-22T04:07:38.382Z,17.90
2018-07-22T04:10:08.455Z,19.33
2018-07-22T04:12:36.695Z,18.53
2018-07-22T04:15:05.126Z,19.60
2018-07-22T04:17:37.538Z,21.20
2018-07-22T04:20:09.984Z,19.73
2018-07-22T04:22:49.677Z,18.33
2018-07-22T04:25:17.889Z,18.30
2018-07-22T04:27:53.446Z,20.50
2018-07-22T04:30:21.618Z,20.00
2018-07-22T04:32:56.007Z,19.10
2018-07-22T04:35:28.324Z,18.70
2018-07-22T04:38:08.391Z,20.03
2018-07-22T04:40:36.535Z,18.10
2018-07-22T04:43:11.846Z,19.23
2018-07-22T04:45:47.982Z,21.30
2018-07-22T04:48:21.780Z,20.77
2018-07-22T04:50:54.658Z,18.03
2018-07-22T04:53:22.980Z,18.30
2018-07-22T04:55:51.175Z,19.57
2018-07-22T04:58:24.467Z,18.67
2018-07-22T05:00:57.868Z,17.60
2018-07-22T05:06:11.008Z,18.47
2018-07-22T05:08:51.585Z,16.50
2018-07-22T05:11:23.686Z,17.50
2018-07-22T05:14:02.090Z,17.97
2018-07-22T05:16:38.208Z,17.40
2018-07-22T05:19:08.997Z,17.83
2018-07-22T05:21:42.358Z,17.20
2018-07-22T05:24:13.454Z,17.67
2018-07-22T05:26:41.654Z,18.20
2018-07-22T05:29:18.585Z,18.10
2018-07-22T05:31:48.778Z,17.90
2018-07-22T05:34:16.914Z,19.23
2018-07-22T05:36:51.479Z,17.40
2018-07-22T05:39:24.463Z,20.67
2018-07-22T05:41:52.810Z,19.63
2018-07-22T05:44:23.650Z,21.40
2018-07-22T05:47:04.094Z,21.83
2018-07-22T05:49:36.341Z,22.67
2018-07-22T05:54:49.967Z,23.93
2018-07-22T05:57:18.102Z,21.63
2018-07-22T05:59:52.734Z,23.33
2018-07-22T06:02:20.888Z,21.90
2018-07-22T06:04:53.365Z,23.00
2018-07-22T06:07:26.559Z,24.17
2018-07-22T06:09:54.768Z,22.50
2018-07-22T06:12:23.042Z,21.07
2018-07-22T06:14:53.214Z,21.97
2018-07-22T06:17:26.413Z,23.10
2018-07-22T06:19:56.527Z,22.63
2018-07-22T06:22:24.826Z,22.43
2018-07-22T06:24:59.270Z,22.53
2018-07-22T06:27:32.345Z,23.10
2018-07-22T06:30:02.844Z,22.77
2018-07-22T06:32:41.211Z,21.30
2018-07-22T06:35:11.493Z,22.27
2018-07-22T06:37:40.075Z,20.27
2018-07-22T06:40:08.460Z,21.13
2018-07-22T06:42:37.055Z,22.43
2018-07-22T06:45:05.412Z,20.83
2018-07-22T06:47:33.615Z,22.33
2018-07-22T06:50:09.456Z,20.50
2018-07-22T06:52:37.569Z,20.87
2018-07-22T06:55:12.174Z,22.30
2018-07-22T06:57:40.288Z,20.37
2018-07-22T07:00:12.546Z,20.20
2018-07-22T07:02:52.430Z,21.43
2018-07-22T07:05:24.847Z,20.47
2018-07-22T07:08:01.460Z,22.23
2018-07-22T07:10:29.669Z,21.97
2018-07-22T07:12:59.979Z,20.93
2018-07-22T07:15:42.785Z,20.97
2018-07-22T07:18:11.119Z,20.97
2018-07-22T07:20:53.641Z,23.00
2018-07-22T07:23:21.769Z,23.37
2018-07-22T07:25:53.969Z,20.17
2018-07-22T07:28:25.081Z,22.03
2018-07-22T07:30:53.243Z,20.77
2018-07-22T07:33:26.641Z,22.37
2018-07-22T07:35:58.929Z,22.53
2018-07-22T07:38:38.894Z,22.37
2018-07-22T07:41:07.407Z,31.13
2018-07-22T07:43:35.798Z,23.07
2018-07-22T07:46:08.335Z,24.70
2018-07-22T07:48:40.377Z,23.20
2018-07-22T07:51:11.328Z,24.23
2018-07-22T07:53:39.473Z,23.87
2018-07-22T07:56:13.867Z,24.70
2018-07-22T07:58:44.815Z,23.50
2018-07-22T08:01:13.042Z,25.90
2018-07-22T08:03:50.497Z,20.90
2018-07-22T08:06:28.126Z,26.17
2018-07-22T08:08:56.265Z,22.63
2018-07-22T08:11:28.628Z,22.30
2018-07-22T08:13:58.887Z,22.60
2018-07-22T08:16:34.010Z,23.23
2018-07-22T08:19:02.614Z,23.30
2018-07-22T08:21:30.753Z,24.30
2018-07-22T08:24:02.094Z,21.63
2018-07-22T08:26:36.392Z,22.63
2018-07-22T08:29:29.078Z,24.23
2018-07-22T08:31:57.552Z,22.03
2018-07-22T08:34:25.691Z,24.00
2018-07-22T08:37:01.189Z,24.07
2018-07-22T08:39:33.611Z,21.33
2018-07-22T08:42:06.990Z,22.50
2018-07-22T08:44:37.369Z,20.90
2018-07-22T08:47:11.970Z,21.77
2018-07-22T08:52:24.930Z,21.97
2018-07-22T08:54:59.385Z,23.40
2018-07-22T08:57:34.073Z,20.73
2018-07-22T09:00:02.266Z,19.17
2018-07-22T09:02:38.941Z,21.93
2018-07-22T09:05:07.346Z,22.50
2018-07-22T09:07:39.686Z,21.10
2018-07-22T09:10:17.546Z,19.90
2018-07-22T09:12:45.734Z,16.53
2018-07-22T09:15:18.442Z,20.27
2018-07-22T09:17:46.624Z,18.00
2018-07-22T09:20:17.733Z,19.27
2018-07-22T09:22:57.755Z,21.07
2018-07-22T09:25:25.944Z,18.80
2018-07-22T09:28:00.525Z,17.87
2018-07-22T09:30:32.895Z,19.57
2018-07-22T09:33:05.970Z,15.27
2018-07-22T09:35:45.802Z,16.20
2018-07-22T09:38:18.255Z,16.90
2018-07-22T09:40:49.038Z,17.27
2018-07-22T09:43:17.490Z,13.87
2018-07-22T09:45:45.613Z,15.57
2018-07-22T09:48:20.085Z,17.43
2018-07-22T09:50:54.646Z,13.80
2018-07-22T09:53:29.174Z,14.27
2018-07-22T09:55:57.283Z,13.70
2018-07-22T09:58:39.094Z,14.27
2018-07-22T10:01:07.274Z,14.37
2018-07-22T10:03:49.304Z,15.70
2018-07-22T10:06:29.313Z,13.47
2018-07-22T10:08:57.460Z,13.80
2018-07-22T10:11:31.764Z,13.70
2018-07-22T10:14:02.024Z,12.80
2018-07-22T10:16:30.496Z,13.53
2018-07-22T10:18:58.751Z,12.53
2018-07-22T10:21:26.944Z,13.33
2018-07-22T10:24:01.223Z,12.53
2018-07-22T10:26:32.265Z,12.27
2018-07-22T10:29:00.525Z,12.20
2018-07-22T10:31:30.762Z,14.47
2018-07-22T10:34:06.391Z,10.60
2018-07-22T10:36:43.907Z,11.50
2018-07-22T10:39:12.388Z,10.43
2018-07-22T10:41:47.812Z,11.53
2018-07-22T10:44:18.758Z,10.30
2018-07-22T10:46:57.029Z,8.97
2018-07-22T10:49:25.492Z,10.80
2018-07-22T10:51:54.013Z,9.43
2018-07-22T10:54:22.134Z,10.07
2018-07-22T10:56:55.522Z,8.13
2018-07-22T10:59:32.962Z,11.00
2018-07-22T11:02:07.626Z,8.57
2018-07-22T11:04:35.816Z,7.67
2018-07-22T11:07:06.950Z,7.77
2018-07-22T11:09:45.306Z,7.60
2018-07-22T11:12:16.389Z,6.43
2018-07-22T11:14:44.654Z,6.57
2018-07-22T11:17:19.249Z,6.20
2018-07-22T11:19:52.673Z,7.10
2018-07-22T11:22:23.890Z,6.80
2018-07-22T11:24:58.273Z,6.50
2018-07-22T11:27:31.953Z,7.77
2018-07-22T11:30:11.813Z,9.90
2018-07-22T11:32:40.194Z,8.20
2018-07-22T11:35:08.381Z,7.30
2018-07-22T11:37:42.932Z,6.87
2018-07-22T11:40:16.251Z,5.97
2018-07-22T11:42:50.655Z,6.23
2018-07-22T11:45:26.056Z,4.73
2018-07-22T11:47:58.234Z,5.73
2018-07-22T11:50:28.577Z,6.33
2018-07-22T11:52:56.975Z,5.70
2018-07-22T11:55:25.111Z,7.47
2018-07-22T11:57:59.045Z,5.87
2018-07-22T12:00:27.285Z,5.30
2018-07-22T12:02:55.491Z,5.17
2018-07-22T12:05:32.099Z,6.30
2018-07-22T12:08:00.419Z,5.63
2018-07-22T12:10:43.060Z,6.03
2018-07-22T12:13:11.263Z,4.47
2018-07-22T12:15:47.421Z,5.10
2018-07-22T12:18:25.688Z,4.87
2018-07-22T12:20:55.912Z,5.20
2018-07-22T12:23:24.057Z,7.13
2018-07-22T12:25:59.948Z,5.73
2018-07-22T12:28:28.075Z,8.37
2018-07-22T12:31:01.124Z,12.67
2018-07-22T12:33:32.215Z,22.07
2018-07-22T12:36:00.446Z,5.40
2018-07-22T12:38:34.983Z,5.00
2018-07-22T12:41:08.341Z,6.37
2018-07-22T12:43:42.909Z,5.43
2018-07-22T12:46:17.429Z,5.37
2018-07-22T12:48:45.658Z,8.53
2018-07-22T12:51:16.758Z,7.30
2018-07-22T12:53:47.034Z,5.50
2018-07-22T12:56:15.178Z,5.57
2018-07-22T12:58:49.849Z,6.70
2018-07-22T13:01:18.145Z,6.23
2018-07-22T13:03:52.834Z,5.07
2018-07-22T13:06:21.209Z,5.43
2018-07-22T13:08:52.434Z,6.23
2018-07-22T13:11:27.082Z,7.77
2018-07-22T13:13:59.357Z,6.73
2018-07-22T13:16:29.941Z,5.90
2018-07-22T13:19:02.950Z,5.53
2018-07-22T13:21:31.269Z,5.80
2018-07-22T13:23:59.386Z,5.00
2018-07-22T13:26:33.879Z,5.70
2018-07-22T13:29:08.467Z,5.50
2018-07-22T13:31:36.658Z,5.80
2018-07-22T13:34:12.823Z,5.30
2018-07-22T13:36:44.030Z,5.20
2018-07-22T13:39:12.409Z,5.77
2018-07-22T13:41:40.895Z,6.23
2018-07-22T13:44:09.122Z,5.67
2018-07-22T13:46:48.952Z,5.43
2018-07-22T13:49:17.283Z,4.67
2018-07-22T13:51:45.468Z,5.67
2018-07-22T13:54:27.577Z,4.80
2018-07-22T13:57:08.394Z,6.33
2018-07-22T13:59:41.581Z,4.80
2018-07-22T14:02:21.478Z,4.43
2018-07-22T14:04:49.620Z,6.07
2018-07-22T14:07:24.372Z,4.87
2018-07-22T14:09:52.486Z,4.50
2018-07-22T14:12:32.242Z,4.63
2018-07-22T14:15:00.455Z,4.07
2018-07-22T14:17:31.663Z,4.40
2018-07-22T14:20:06.313Z,4.50
2018-07-22T14:22:46.143Z,6.93
2018-07-22T14:25:14.433Z,4.97
2018-07-22T14:27:42.643Z,3.77
2018-07-22T14:30:17.004Z,4.20
2018-07-22T14:32:47.249Z,4.73
2018-07-22T14:35:17.524Z,5.97
2018-07-22T14:37:45.646Z,3.90
2018-07-22T14:40:16.901Z,4.20
2018-07-22T14:42:52.468Z,4.20
2018-07-22T14:45:28.161Z,3.83
2018-07-22T14:48:02.602Z,5.43
2018-07-22T14:50:33.640Z,5.50
2018-07-22T14:53:05.020Z,3.47
2018-07-22T14:55:35.425Z,5.40
2018-07-22T14:58:05.863Z,3.90
2018-07-22T15:00:34.106Z,4.10
2018-07-22T15:03:02.341Z,4.93
2018-07-22T15:05:33.337Z,5.67
2018-07-22T15:08:01.830Z,3.93
2018-07-22T15:10:30.203Z,4.60
2018-07-22T15:12:58.476Z,4.17
2018-07-22T15:15:29.680Z,3.40
2018-07-22T15:18:07.946Z,3.70
2018-07-22T15:20:40.611Z,5.50
2018-07-22T15:23:12.951Z,3.87
2018-07-22T15:25:52.767Z,5.40
2018-07-22T15:28:20.905Z,3.57
2018-07-22T15:30:53.399Z,3.53
2018-07-22T15:33:24.426Z,4.57
2018-07-22T15:35:52.816Z,3.13
2018-07-22T15:38:21.006Z,3.40
2018-07-22T15:40:58.475Z,3.53
2018-07-22T15:43:30.908Z,4.40
2018-07-22T15:46:01.986Z,3.87
2018-07-22T15:48:35.421Z,4.60
2018-07-22T15:51:06.507Z,3.90
2018-07-22T15:53:34.744Z,5.17
2018-07-22T15:56:09.434Z,3.17
2018-07-22T15:58:37.573Z,4.73
2018-07-22T16:01:12.356Z,3.87
2018-07-22T16:03:40.560Z,3.50
2018-07-22T16:06:12.953Z,4.23
2018-07-22T16:08:49.845Z,4.87
2018-07-22T16:11:18.089Z,6.87
2018-07-22T16:13:50.317Z,4.87
2018-07-22T16:16:18.632Z,3.87
2018-07-22T16:18:49.794Z,4.30
2018-07-22T16:21:18.005Z,3.23
2018-07-22T16:23:52.402Z,3.87
2018-07-22T16:26:29.093Z,5.03
2018-07-22T16:28:57.287Z,3.43
2018-07-22T16:31:31.845Z,3.63
2018-07-22T16:34:05.035Z,3.67
2018-07-22T16:36:47.064Z,4.50
2018-07-22T16:39:15.657Z,5.83
2018-07-22T16:41:45.875Z,3.30
2018-07-22T16:44:14.038Z,4.43
2018-07-22T16:46:48.699Z,4.33
2018-07-22T16:49:16.837Z,5.33
2018-07-22T16:51:53.205Z,3.50
2018-07-22T16:54:25.690Z,3.27
2018-07-22T16:57:00.160Z,3.33
2018-07-22T16:59:32.809Z,3.17
2018-07-22T17:02:13.371Z,3.20
2018-07-22T17:04:41.518Z,4.37
2018-07-22T17:07:15.929Z,5.73
2018-07-22T17:09:56.395Z,3.60
2018-07-22T17:12:36.354Z,3.43
2018-07-22T17:15:05.220Z,3.60
2018-07-22T17:17:35.530Z,3.23
2018-07-22T17:20:04.136Z,3.73
2018-07-22T17:22:38.673Z,4.73
2018-07-22T17:25:14.684Z,3.80
2018-07-22T17:27:42.798Z,4.03
2018-07-22T17:30:14.077Z,3.40
2018-07-22T17:32:48.584Z,3.13
2018-07-22T17:35:28.417Z,4.80
2018-07-22T17:37:56.600Z,2.80
2018-07-22T17:40:29.036Z,3.37
2018-07-22T17:43:01.235Z,5.43
2018-07-22T17:45:34.547Z,3.43
2018-07-22T17:48:14.356Z,3.40
2018-07-22T17:50:45.415Z,3.73
2018-07-22T17:53:17.556Z,3.20
2018-07-22T17:55:46.170Z,3.27
2018-07-22T17:58:14.513Z,4.83
2018-07-22T18:00:42.690Z,3.00
2018-07-22T18:03:23.946Z,3.47
2018-07-22T18:05:59.225Z,4.03
2018-07-22T18:08:30.233Z,3.17
2018-07-22T18:10:58.436Z,3.90
2018-07-22T18:13:33.281Z,4.97
2018-07-22T18:16:01.758Z,5.33
2018-07-22T18:18:30.078Z,5.17
2018-07-22T18:20:58.310Z,3.23
2018-07-22T18:23:32.910Z,3.43
2018-07-22T18:26:06.279Z,4.13
2018-07-22T18:28:46.548Z,3.50
2018-07-22T18:31:17.524Z,3.83
2018-07-22T18:33:46.052Z,3.10
2018-07-22T18:36:14.263Z,3.70
2018-07-22T18:38:48.169Z,4.13
2018-07-22T18:41:18.433Z,3.30
2018-07-22T18:43:46.762Z,3.50
2018-07-22T18:46:15.094Z,3.17
2018-07-22T18:48:50.579Z,4.50
2018-07-22T18:51:22.943Z,3.20
2018-07-22T18:53:57.541Z,4.07
2018-07-22T18:56:25.739Z,4.07
2018-07-22T18:58:58.239Z,3.07
2018-07-22T19:01:35.589Z,3.17
2018-07-22T19:04:08.795Z,3.67
2018-07-22T19:06:38.957Z,2.97
2018-07-22T19:09:09.631Z,3.90
2018-07-22T19:11:37.756Z,4.57
2018-07-22T19:14:09.317Z,3.07
2018-07-22T19:16:37.693Z,3.40
2018-07-22T19:19:13.889Z,3.10
2018-07-22T19:21:46.414Z,4.90
2018-07-22T19:24:20.811Z,3.40
2018-07-22T19:26:51.814Z,3.17
2018-07-22T19:29:20.061Z,4.40
2018-07-22T19:31:51.440Z,4.83
2018-07-22T19:34:28.277Z,4.67
2018-07-22T19:36:56.470Z,4.03
2018-07-22T19:39:24.721Z,3.73
2018-07-22T19:41:55.692Z,5.53
2018-07-22T19:44:23.950Z,2.97
2018-07-22T19:46:54.283Z,3.30
2018-07-22T19:52:02.202Z,5.00
2018-07-22T19:54:33.051Z,3.73
2018-07-22T19:57:01.312Z,3.30
2018-07-22T19:59:33.757Z,4.53
2018-07-22T20:02:02.077Z,3.67
2018-07-22T20:04:33.069Z,3.60
2018-07-22T20:07:01.300Z,5.90
2018-07-22T20:09:29.566Z,3.70
2018-07-22T20:12:03.913Z,3.47
2018-07-22T20:14:35.016Z,3.23
2018-07-22T20:17:03.261Z,4.60
2018-07-22T20:19:31.576Z,5.20
2018-07-22T20:24:39.917Z,4.47
2018-07-22T20:27:10.442Z,3.53
2018-07-22T20:29:40.978Z,3.30
2018-07-22T20:32:28.921Z,4.67
2018-07-22T20:34:57.177Z,3.47
2018-07-22T20:37:34.094Z,4.20
2018-07-22T20:40:02.957Z,4.80
2018-07-22T20:42:37.630Z,5.03
2018-07-22T20:45:10.077Z,3.47
2018-07-22T20:47:42.551Z,3.30
2018-07-22T20:50:13.505Z,5.57
2018-07-22T20:52:44.057Z,3.60
2018-07-22T20:55:14.360Z,3.70
2018-07-22T20:57:42.775Z,4.60
2018-07-22T21:00:11.155Z,4.60
2018-07-22T21:02:39.454Z,5.10
2018-07-22T21:05:17.187Z,5.63
2018-07-22T21:07:45.921Z,4.07
2018-07-22T21:13:10.852Z,5.47
2018-07-22T21:15:47.573Z,3.90
2018-07-22T21:18:18.582Z,3.50
2018-07-22T21:20:46.871Z,3.70
2018-07-22T21:23:15.275Z,5.87
2018-07-22T21:25:43.551Z,9.17
2018-07-22T21:28:14.621Z,2.93
2018-07-22T21:30:47.021Z,3.80
2018-07-22T21:33:18.311Z,3.63
2018-07-22T21:35:47.004Z,3.70
2018-07-22T21:38:23.321Z,4.33
2018-07-22T21:40:53.541Z,4.87
2018-07-22T21:43:21.772Z,4.73
2018-07-22T21:45:57.063Z,3.47
2018-07-22T21:48:31.508Z,4.37
2018-07-22T21:51:02.712Z,5.60
2018-07-22T21:53:40.994Z,4.67
2018-07-22T21:56:11.360Z,3.33
2018-07-22T21:58:39.589Z,3.50
2018-07-22T22:01:10.539Z,3.40
2018-07-22T22:03:40.702Z,5.43
2018-07-22T22:06:08.944Z,3.90
2018-07-22T22:08:42.025Z,6.13
2018-07-22T22:11:13.918Z,3.27
2018-07-22T22:13:47.155Z,5.83
2018-07-22T22:16:18.221Z,4.10
2018-07-22T22:18:46.391Z,4.87
2018-07-22T22:21:17.465Z,2.83
2018-07-22T22:23:48.883Z,5.47
2018-07-22T22:26:19.373Z,6.37
2018-07-22T22:28:55.410Z,6.07
2018-07-22T22:31:23.613Z,5.83
2018-07-22T22:34:03.829Z,5.87
2018-07-22T22:36:41.985Z,5.00
2018-07-22T22:39:13.214Z,3.60
2018-07-22T22:41:45.374Z,3.83
2018-07-22T22:44:18.463Z,3.90
2018-07-22T22:46:50.458Z,3.87
2018-07-22T22:49:18.605Z,3.57
2018-07-22T22:51:51.906Z,5.40
2018-07-22T22:54:23.186Z,4.20
2018-07-22T22:56:51.565Z,4.03
2018-07-22T22:59:23.704Z,3.37
2018-07-22T23:01:58.468Z,4.53
2018-07-22T23:04:26.724Z,3.77
2018-07-22T23:06:59.228Z,3.53
2018-07-22T23:09:27.477Z,3.60
2018-07-22T23:12:03.619Z,3.57
2018-07-22T23:14:34.772Z,3.70
2018-07-22T23:17:02.958Z,4.00
2018-07-22T23:19:38.538Z,3.97
2018-07-22T23:22:06.778Z,3.40
2018-07-22T23:24:42.229Z,3.87
2018-07-22T23:27:13.374Z,7.73
2018-07-22T23:29:42.774Z,4.50
2018-07-22T23:32:13.175Z,6.00
2018-07-22T23:34:41.365Z,4.20
2018-07-22T23:37:12.314Z,4.33
2018-07-22T23:39:44.388Z,3.50
2018-07-22T23:42:13.083Z,5.37
2018-07-22T23:44:41.335Z,4.00
2018-07-22T23:47:14.950Z,5.17
2018-07-22T23:49:43.217Z,8.30
2018-07-22T23:52:14.562Z,4.20
2018-07-22T23:54:49.280Z,4.43
2018-07-22T23:57:17.564Z,5.73
2018-07-22T23:59:48.616Z,4.27
